sensor_id;sensor_type;location;lat;lon;timestamp;pressure;altitude;pressure_sealevel;temperature;humidity
14232;BME280;7200;52.194;9.900;2023-05-25T00:00:27;101472.66;;;11.16;100.00
14232;BME280;7200;52.194;9.900;2023-05-25T00:02:53;101460.31;;;11.16;100.00
14232;BME280;7200;52.194;9.900;2023-05-25T00:05:21;101451.91;;;10.99;100.00
14232;BME280;7200;52.194;9.900;2023-05-25T00:07:51;101441.94;;;10.69;100.00
14232;BME280;7200;52.194;9.900;2023-05-25T00:10:16;101461.03;;;10.82;100.00
14232;BME280;7200;52.194;9.900;2023-05-25T00:12:41;101455.94;;;10.73;100.00
14232;BME280;7200;52.194;9.900;2023-05-25T00:15:07;101465.50;;;10.79;100.00
14232;BME280;7200;52.194;9.900;2023-05-25T00:17:32;101468.25;;;10.76;100.00
14232;BME280;7200;52.194;9.900;2023-05-25T00:20:01;101460.50;;;10.66;100.00
14232;BME280;7200;52.194;9.900;2023-05-25T00:22:36;101472.63;;;10.75;100.00
14232;BME280;7200;52.194;9.900;2023-05-25T00:25:03;101463.06;;;10.69;100.00
14232;BME280;7200;52.194;9.900;2023-05-25T00:27:29;101462.34;;;10.63;100.00
14232;BME280;7200;52.194;9.900;2023-05-25T00:29:55;101465.69;;;10.69;100.00
14232;BME280;7200;52.194;9.900;2023-05-25T00:32:20;101461.38;;;10.67;100.00
14232;BME280;7200;52.194;9.900;2023-05-25T00:34:46;101461.38;;;10.67;100.00
14232;BME280;7200;52.194;9.900;2023-05-25T00:37:11;101457.78;;;10.69;100.00
14232;BME280;7200;52.194;9.900;2023-05-25T00:39:36;101456.97;;;10.66;100.00
14232;BME280;7200;52.194;9.900;2023-05-25T00:42:02;101459.69;;;10.63;100.00
14232;BME280;7200;52.194;9.900;2023-05-25T00:44:27;101443.38;;;10.42;100.00
14232;BME280;7200;52.194;9.900;2023-05-25T00:46:53;101443.34;;;10.44;100.00
14232;BME280;7200;52.194;9.900;2023-05-25T00:49:19;101451.34;;;10.39;100.00
14232;BME280;7200;52.194;9.900;2023-05-25T00:51:46;101448.72;;;10.38;100.00
14232;BME280;7200;52.194;9.900;2023-05-25T00:54:13;101454.88;;;10.40;100.00
14232;BME280;7200;52.194;9.900;2023-05-25T00:56:45;101455.88;;;10.34;100.00
14232;BME280;7200;52.194;9.900;2023-05-25T00:59:14;101460.31;;;10.30;100.00
14232;BME280;7200;52.194;9.900;2023-05-25T01:01:42;101458.72;;;10.20;100.00
14232;BME280;7200;52.194;9.900;2023-05-25T01:04:12;101459.63;;;10.19;100.00
14232;BME280;7200;52.194;9.900;2023-05-25T01:06:43;101461.38;;;10.19;100.00
14232;BME280;7200;52.194;9.900;2023-05-25T01:09:10;101468.50;;;10.13;100.00
14232;BME280;7200;52.194;9.900;2023-05-25T01:11:39;101475.22;;;10.33;100.00
14232;BME280;7200;52.194;9.900;2023-05-25T01:14:07;101454.34;;;10.19;100.00
14232;BME280;7200;52.194;9.900;2023-05-25T01:16:32;101473.50;;;10.30;100.00
14232;BME280;7200;52.194;9.900;2023-05-25T01:18:57;101456.22;;;10.12;100.00
14232;BME280;7200;52.194;9.900;2023-05-25T01:21:41;101470.13;;;10.21;100.00
14232;BME280;7200;52.194;9.900;2023-05-25T01:27:16;101475.53;;;10.13;100.00
14232;BME280;7200;52.194;9.900;2023-05-25T01:29:45;101477.44;;;10.06;100.00
14232;BME280;7200;52.194;9.900;2023-05-25T01:32:12;101492.13;;;10.20;100.00
14232;BME280;7200;52.194;9.900;2023-05-25T01:34:40;101492.00;;;10.26;100.00
14232;BME280;7200;52.194;9.900;2023-05-25T01:37:07;101484.34;;;10.12;100.00
14232;BME280;7200;52.194;9.900;2023-05-25T01:39:32;101481.66;;;10.15;100.00
14232;BME280;7200;52.194;9.900;2023-05-25T01:41:57;101482.69;;;10.08;100.00
14232;BME280;7200;52.194;9.900;2023-05-25T01:44:23;101493.75;;;10.27;100.00
14232;BME280;7200;52.194;9.900;2023-05-25T01:46:55;101474.59;;;10.17;100.00
14232;BME280;7200;52.194;9.900;2023-05-25T01:49:31;101488.78;;;10.10;100.00
14232;BME280;7200;52.194;9.900;2023-05-25T01:52:22;101480.88;;;10.10;100.00
14232;BME280;7200;52.194;9.900;2023-05-25T01:54:52;101481.03;;;10.01;100.00
14232;BME280;7200;52.194;9.900;2023-05-25T01:57:19;101478.50;;;9.94;100.00
14232;BME280;7200;52.194;9.900;2023-05-25T01:59:46;101478.53;;;9.93;100.00
14232;BME280;7200;52.194;9.900;2023-05-25T02:02:13;101490.66;;;10.03;100.00
14232;BME280;7200;52.194;9.900;2023-05-25T02:04:41;101476.66;;;10.00;100.00
14232;BME280;7200;52.194;9.900;2023-05-25T02:07:07;101481.91;;;10.00;100.00
14232;BME280;7200;52.194;9.900;2023-05-25T02:09:32;101494.03;;;10.11;100.00
14232;BME280;7200;52.194;9.900;2023-05-25T02:11:57;101488.63;;;10.19;100.00
14232;BME280;7200;52.194;9.900;2023-05-25T02:14:23;101486.84;;;10.21;100.00
14232;BME280;7200;52.194;9.900;2023-05-25T02:16:49;101494.63;;;10.30;100.00
14232;BME280;7200;52.194;9.900;2023-05-25T02:19:14;101489.47;;;10.21;100.00
14232;BME280;7200;52.194;9.900;2023-05-25T02:21:40;101482.41;;;10.22;100.00
14232;BME280;7200;52.194;9.900;2023-05-25T02:24:06;101480.66;;;10.22;100.00
14232;BME280;7200;52.194;9.900;2023-05-25T02:26:34;101484.09;;;10.26;100.00
14232;BME280;7200;52.194;9.900;2023-05-25T02:28:59;101482.41;;;10.23;100.00
14232;BME280;7200;52.194;9.900;2023-05-25T02:31:26;101478.09;;;10.19;100.00
14232;BME280;7200;52.194;9.900;2023-05-25T02:33:52;101468.56;;;10.10;100.00
14232;BME280;7200;52.194;9.900;2023-05-25T02:36:17;101482.38;;;10.25;100.00
14232;BME280;7200;52.194;9.900;2023-05-25T02:38:42;101483.13;;;10.30;100.00
14232;BME280;7200;52.194;9.900;2023-05-25T02:41:08;101476.09;;;10.32;100.00
14232;BME280;7200;52.194;9.900;2023-05-25T02:43:33;101478.72;;;10.32;100.00
14232;BME280;7200;52.194;9.900;2023-05-25T02:45:58;101471.84;;;10.23;100.00
14232;BME280;7200;52.194;9.900;2023-05-25T02:48:23;101476.31;;;10.20;100.00
14232;BME280;7200;52.194;9.900;2023-05-25T02:50:49;101457.38;;;9.96;100.00
14232;BME280;7200;52.194;9.900;2023-05-25T02:53:14;101477.25;;;10.16;100.00
14232;BME280;7200;52.194;9.900;2023-05-25T02:55:40;101477.16;;;10.20;100.00
14232;BME280;7200;52.194;9.900;2023-05-25T02:58:07;101476.22;;;10.24;100.00
14232;BME280;7200;52.194;9.900;2023-05-25T03:00:32;101449.72;;;9.81;100.00
14232;BME280;7200;52.194;9.900;2023-05-25T03:02:58;101468.97;;;9.87;100.00
14232;BME280;7200;52.194;9.900;2023-05-25T03:05:23;101463.69;;;9.87;100.00
14232;BME280;7200;52.194;9.900;2023-05-25T03:07:48;101486.34;;;9.98;100.00
14232;BME280;7200;52.194;9.900;2023-05-25T03:10:14;101488.84;;;10.05;100.00
14232;BME280;7200;52.194;9.900;2023-05-25T03:12:39;101500.19;;;10.10;100.00
14232;BME280;7200;52.194;9.900;2023-05-25T03:15:05;101502.78;;;10.13;100.00
14232;BME280;7200;52.194;9.900;2023-05-25T03:17:30;101508.22;;;10.04;100.00
14232;BME280;7200;52.194;9.900;2023-05-25T03:19:55;101525.50;;;10.21;100.00
14232;BME280;7200;52.194;9.900;2023-05-25T03:22:21;101520.28;;;10.19;100.00
14232;BME280;7200;52.194;9.900;2023-05-25T03:24:46;101520.19;;;10.24;100.00
14232;BME280;7200;52.194;9.900;2023-05-25T03:27:13;101528.84;;;10.32;100.00
14232;BME280;7200;52.194;9.900;2023-05-25T03:29:38;101540.06;;;10.43;100.00
14232;BME280;7200;52.194;9.900;2023-05-25T03:32:04;101540.06;;;10.43;100.00
14232;BME280;7200;52.194;9.900;2023-05-25T03:34:29;101548.78;;;10.48;100.00
14232;BME280;7200;52.194;9.900;2023-05-25T03:36:58;101548.66;;;10.56;100.00
14232;BME280;7200;52.194;9.900;2023-05-25T03:39:24;101540.75;;;10.55;100.00
14232;BME280;7200;52.194;9.900;2023-05-25T03:41:49;101559.75;;;10.74;100.00
14232;BME280;7200;52.194;9.900;2023-05-25T03:44:15;101539.69;;;10.65;100.00
14232;BME280;7200;52.194;9.900;2023-05-25T03:46:40;101544.16;;;10.63;100.00
14232;BME280;7200;52.194;9.900;2023-05-25T03:49:05;101538.03;;;10.61;100.00
14232;BME280;7200;52.194;9.900;2023-05-25T03:51:31;101549.25;;;10.72;100.00
14232;BME280;7200;52.194;9.900;2023-05-25T03:53:56;101553.63;;;10.71;100.00
14232;BME280;7200;52.194;9.900;2023-05-25T03:56:21;101552.47;;;10.86;100.00
14232;BME280;7200;52.194;9.900;2023-05-25T03:58:47;101555.88;;;10.93;100.00
14232;BME280;7200;52.194;9.900;2023-05-25T04:01:12;101548.97;;;10.86;100.00
14232;BME280;7200;52.194;9.900;2023-05-25T04:03:38;101551.59;;;10.87;100.00
14232;BME280;7200;52.194;9.900;2023-05-25T04:06:04;101544.72;;;10.77;100.00
14232;BME280;7200;52.194;9.900;2023-05-25T04:08:29;101537.59;;;10.82;100.00
14232;BME280;7200;52.194;9.900;2023-05-25T04:10:54;101551.38;;;10.98;100.00
14232;BME280;7200;52.194;9.900;2023-05-25T04:13:20;101542.59;;;10.96;100.00
14232;BME280;7200;52.194;9.900;2023-05-25T04:15:45;101534.81;;;10.90;100.00
14232;BME280;7200;52.194;9.900;2023-05-25T04:18:11;101528.06;;;10.75;100.00
14232;BME280;7200;52.194;9.900;2023-05-25T04:20:36;101548.81;;;10.94;100.00
14232;BME280;7200;52.194;9.900;2023-05-25T04:23:01;101559.06;;;11.09;100.00
14232;BME280;7200;52.194;9.900;2023-05-25T04:25:26;101548.59;;;11.04;100.00
14232;BME280;7200;52.194;9.900;2023-05-25T04:27:52;101550.38;;;11.04;100.00
14232;BME280;7200;52.194;9.900;2023-05-25T04:30:17;101548.75;;;10.97;100.00
14232;BME280;7200;52.194;9.900;2023-05-25T04:32:43;101544.50;;;10.89;100.00
14232;BME280;7200;52.194;9.900;2023-05-25T04:35:10;101557.56;;;10.96;100.00
14232;BME280;7200;52.194;9.900;2023-05-25T04:37:35;101556.53;;;11.04;100.00
14232;BME280;7200;52.194;9.900;2023-05-25T04:40:01;101569.47;;;11.17;100.00
14232;BME280;7200;52.194;9.900;2023-05-25T04:42:30;101561.78;;;11.06;100.00
14232;BME280;7200;52.194;9.900;2023-05-25T04:44:56;101573.81;;;11.21;100.00
14232;BME280;7200;52.194;9.900;2023-05-25T04:47:23;101562.34;;;11.20;100.00
14232;BME280;7200;52.194;9.900;2023-05-25T04:49:49;101552.63;;;11.22;100.00
14232;BME280;7200;52.194;9.900;2023-05-25T04:52:14;101567.47;;;11.28;100.00
14232;BME280;7200;52.194;9.900;2023-05-25T04:54:39;101559.69;;;11.22;100.00
14232;BME280;7200;52.194;9.900;2023-05-25T04:57:05;101565.72;;;11.28;100.00
14232;BME280;7200;52.194;9.900;2023-05-25T04:59:31;101548.44;;;11.12;100.00
14232;BME280;7200;52.194;9.900;2023-05-25T05:01:56;101542.75;;;10.88;100.00
14232;BME280;7200;52.194;9.900;2023-05-25T05:04:21;101560.13;;;11.00;100.00
14232;BME280;7200;52.194;9.900;2023-05-25T05:06:47;101568.78;;;11.07;100.00
14232;BME280;7200;52.194;9.900;2023-05-25T05:09:12;101562.00;;;10.94;100.00
14232;BME280;7200;52.194;9.900;2023-05-25T05:11:38;101578.22;;;11.19;100.00
14232;BME280;7200;52.194;9.900;2023-05-25T05:14:03;101580.88;;;11.19;100.00
14232;BME280;7200;52.194;9.900;2023-05-25T05:16:28;101575.75;;;11.11;100.00
14232;BME280;7200;52.194;9.900;2023-05-25T05:18:58;101574.19;;;11.01;100.00
14232;BME280;7200;52.194;9.900;2023-05-25T05:21:23;101586.38;;;11.09;100.00
14232;BME280;7200;52.194;9.900;2023-05-25T05:23:49;101585.97;;;11.28;100.00
14232;BME280;7200;52.194;9.900;2023-05-25T05:26:14;101588.53;;;11.33;100.00
14232;BME280;7200;52.194;9.900;2023-05-25T05:28:39;101578.31;;;11.16;100.00
14232;BME280;7200;52.194;9.900;2023-05-25T05:31:05;101574.84;;;11.14;100.00
14232;BME280;7200;52.194;9.900;2023-05-25T05:33:31;101574.28;;;10.96;100.00
14232;BME280;7200;52.194;9.900;2023-05-25T05:35:56;101594.00;;;11.23;100.00
14232;BME280;7200;52.194;9.900;2023-05-25T05:38:22;101601.38;;;11.49;100.00
14232;BME280;7200;52.194;9.900;2023-05-25T05:40:47;101586.56;;;11.42;100.00
14232;BME280;7200;52.194;9.900;2023-05-25T05:43:13;101590.00;;;11.46;100.00
14232;BME280;7200;52.194;9.900;2023-05-25T05:45:38;101587.03;;;11.60;100.00
14232;BME280;7200;52.194;9.900;2023-05-25T05:48:05;101579.22;;;11.57;100.00
14232;BME280;7200;52.194;9.900;2023-05-25T05:50:37;101580.91;;;11.59;100.00
14232;BME280;7200;52.194;9.900;2023-05-25T05:53:03;101586.69;;;11.75;100.00
14232;BME280;7200;52.194;9.900;2023-05-25T05:55:29;101588.31;;;11.81;100.00
14232;BME280;7200;52.194;9.900;2023-05-25T05:57:54;101588.09;;;11.93;100.00
14232;BME280;7200;52.194;9.900;2023-05-25T06:00:20;101561.28;;;11.69;100.00
14232;BME280;7200;52.194;9.900;2023-05-25T06:02:45;101551.25;;;11.45;100.00
14232;BME280;7200;52.194;9.900;2023-05-25T06:05:11;101548.53;;;11.49;100.00
14232;BME280;7200;52.194;9.900;2023-05-25T06:07:36;101550.38;;;11.44;100.00
14232;BME280;7200;52.194;9.900;2023-05-25T06:10:03;101566.00;;;11.57;100.00
14232;BME280;7200;52.194;9.900;2023-05-25T06:12:28;101553.25;;;11.34;100.00
14232;BME280;7200;52.194;9.900;2023-05-25T06:14:53;101554.66;;;11.50;100.00
14232;BME280;7200;52.194;9.900;2023-05-25T06:17:19;101547.72;;;11.46;100.00
14232;BME280;7200;52.194;9.900;2023-05-25T06:19:44;101545.78;;;11.53;100.00
14232;BME280;7200;52.194;9.900;2023-05-25T06:22:10;101544.78;;;11.58;100.00
14232;BME280;7200;52.194;9.900;2023-05-25T06:24:35;101557.09;;;11.61;100.00
14232;BME280;7200;52.194;9.900;2023-05-25T06:27:00;101565.63;;;11.72;100.00
14232;BME280;7200;52.194;9.900;2023-05-25T06:29:27;101577.19;;;11.68;100.00
14232;BME280;7200;52.194;9.900;2023-05-25T06:31:52;101572.66;;;11.73;100.00
14232;BME280;7200;52.194;9.900;2023-05-25T06:34:18;101584.75;;;11.85;100.00
14232;BME280;7200;52.194;9.900;2023-05-25T06:36:43;101570.72;;;11.81;100.00
14232;BME280;7200;52.194;9.900;2023-05-25T06:39:08;101568.31;;;11.71;100.00
14232;BME280;7200;52.194;9.900;2023-05-25T06:41:37;101548.75;;;11.39;100.00
14232;BME280;7200;52.194;9.900;2023-05-25T06:44:03;101564.97;;;11.62;100.00
14232;BME280;7200;52.194;9.900;2023-05-25T06:46:28;101567.06;;;11.48;100.00
14232;BME280;7200;52.194;9.900;2023-05-25T06:48:53;101565.41;;;11.42;100.00
14232;BME280;7200;52.194;9.900;2023-05-25T06:51:19;101560.09;;;11.44;100.00
14232;BME280;7200;52.194;9.900;2023-05-25T06:53:45;101590.88;;;11.85;100.00
14232;BME280;7200;52.194;9.900;2023-05-25T06:56:10;101577.69;;;11.84;100.00
14232;BME280;7200;52.194;9.900;2023-05-25T06:58:35;101543.03;;;11.59;100.00
14232;BME280;7200;52.194;9.900;2023-05-25T07:01:01;101553.25;;;11.74;100.00
14232;BME280;7200;52.194;9.900;2023-05-25T07:03:26;101549.22;;;11.58;100.00
14232;BME280;7200;52.194;9.900;2023-05-25T07:05:52;101552.56;;;11.66;100.00
14232;BME280;7200;52.194;9.900;2023-05-25T07:08:17;101542.53;;;11.41;100.00
14232;BME280;7200;52.194;9.900;2023-05-25T07:10:42;101550.69;;;11.69;100.00
14232;BME280;7200;52.194;9.900;2023-05-25T07:13:09;101543.13;;;11.54;100.00
14232;BME280;7200;52.194;9.900;2023-05-25T07:15:34;101554.91;;;11.78;100.00
14232;BME280;7200;52.194;9.900;2023-05-25T07:17:59;101569.66;;;11.88;100.00
14232;BME280;7200;52.194;9.900;2023-05-25T07:20:24;101553.94;;;11.82;100.00
14232;BME280;7200;52.194;9.900;2023-05-25T07:22:51;101571.06;;;12.05;100.00
14232;BME280;7200;52.194;9.900;2023-05-25T07:25:17;101569.31;;;12.05;100.00
14232;BME280;7200;52.194;9.900;2023-05-25T07:27:47;101568.88;;;12.22;100.00
14232;BME280;7200;52.194;9.900;2023-05-25T07:30:12;101559.44;;;12.11;100.00
14232;BME280;7200;52.194;9.900;2023-05-25T07:32:38;101557.50;;;12.19;100.00
14232;BME280;7200;52.194;9.900;2023-05-25T07:35:03;101526.06;;;12.06;100.00
14232;BME280;7200;52.194;9.900;2023-05-25T07:37:29;101538.81;;;11.87;100.00
14232;BME280;7200;52.194;9.900;2023-05-25T07:39:54;101565.28;;;12.25;100.00
14232;BME280;7200;52.194;9.900;2023-05-25T07:42:20;101568.19;;;12.49;100.00
14232;BME280;7200;52.194;9.900;2023-05-25T07:44:47;101557.56;;;12.50;100.00
14232;BME280;7200;52.194;9.900;2023-05-25T07:47:12;101546.44;;;12.37;100.00
14232;BME280;7200;52.194;9.900;2023-05-25T07:49:38;101549.00;;;12.40;100.00
14232;BME280;7200;52.194;9.900;2023-05-25T07:52:03;101550.03;;;12.35;100.00
14232;BME280;7200;52.194;9.900;2023-05-25T07:54:30;101561.75;;;12.59;100.00
14232;BME280;7200;52.194;9.900;2023-05-25T07:56:55;101540.44;;;12.31;100.00
14232;BME280;7200;52.194;9.900;2023-05-25T07:59:20;101536.06;;;12.28;100.00
14232;BME280;7200;52.194;9.900;2023-05-25T08:01:46;101539.63;;;12.29;100.00
14232;BME280;7200;52.194;9.900;2023-05-25T08:04:11;101558.31;;;12.55;100.00
14232;BME280;7200;52.194;9.900;2023-05-25T08:06:36;101566.03;;;12.64;100.00
14232;BME280;7200;52.194;9.900;2023-05-25T08:09:03;101563.16;;;12.72;100.00
14232;BME280;7200;52.194;9.900;2023-05-25T08:11:29;101568.97;;;12.87;100.00
14232;BME280;7200;52.194;9.900;2023-05-25T08:13:55;101540.22;;;12.71;100.00
14232;BME280;7200;52.194;9.900;2023-05-25T08:16:20;101547.34;;;12.69;100.00
14232;BME280;7200;52.194;9.900;2023-05-25T08:18:46;101551.00;;;12.65;100.00
14232;BME280;7200;52.194;9.900;2023-05-25T08:21:11;101553.81;;;12.59;100.00
14232;BME280;7200;52.194;9.900;2023-05-25T08:23:39;101579.41;;;12.91;100.00
14232;BME280;7200;52.194;9.900;2023-05-25T08:26:09;101553.03;;;12.55;100.00
14232;BME280;7200;52.194;9.900;2023-05-25T08:28:35;101557.47;;;12.55;100.00
14232;BME280;7200;52.194;9.900;2023-05-25T08:31:01;101578.69;;;12.84;100.00
14232;BME280;7200;52.194;9.900;2023-05-25T08:33:26;101584.66;;;13.24;100.00
14232;BME280;7200;52.194;9.900;2023-05-25T08:35:52;101583.50;;;13.64;100.00
14232;BME280;7200;52.194;9.900;2023-05-25T08:38:17;101552.72;;;13.30;100.00
14232;BME280;7200;52.194;9.900;2023-05-25T08:40:44;101530.69;;;12.97;100.00
14232;BME280;7200;52.194;9.900;2023-05-25T08:43:09;101549.19;;;12.98;100.00
14232;BME280;7200;52.194;9.900;2023-05-25T08:45:35;101556.78;;;13.11;100.00
14232;BME280;7200;52.194;9.900;2023-05-25T08:48:02;101561.50;;;13.32;100.00
14232;BME280;7200;52.194;9.900;2023-05-25T08:50:29;101552.81;;;13.25;100.00
14232;BME280;7200;52.194;9.900;2023-05-25T08:52:56;101560.94;;;13.51;100.00
14232;BME280;7200;52.194;9.900;2023-05-25T08:55:26;101544.16;;;13.20;100.00
14232;BME280;7200;52.194;9.900;2023-05-25T08:58:14;101566.88;;;13.59;100.00
14232;BME280;7200;52.194;9.900;2023-05-25T09:00:50;101521.09;;;12.93;100.00
14232;BME280;7200;52.194;9.900;2023-05-25T09:03:19;101523.00;;;12.88;100.00
14232;BME280;7200;52.194;9.900;2023-05-25T09:05:46;101538.63;;;12.97;100.00
14232;BME280;7200;52.194;9.900;2023-05-25T09:08:12;101530.72;;;12.95;100.00
14232;BME280;7200;52.194;9.900;2023-05-25T09:10:38;101550.13;;;13.27;100.00
14232;BME280;7200;52.194;9.900;2023-05-25T09:13:04;101550.22;;;13.54;100.00
14232;BME280;7200;52.194;9.900;2023-05-25T09:15:33;101552.63;;;13.61;100.00
14232;BME280;7200;52.194;9.900;2023-05-25T09:17:58;101577.19;;;13.96;100.00
14232;BME280;7200;52.194;9.900;2023-05-25T09:20:24;101532.41;;;13.59;100.00
14232;BME280;7200;52.194;9.900;2023-05-25T09:22:55;101536.44;;;13.42;100.00
14232;BME280;7200;52.194;9.900;2023-05-25T09:25:21;101537.63;;;13.32;100.00
14232;BME280;7200;52.194;9.900;2023-05-25T09:27:48;101547.19;;;13.38;100.00
14232;BME280;7200;52.194;9.900;2023-05-25T09:30:13;101543.25;;;13.20;100.00
14232;BME280;7200;52.194;9.900;2023-05-25T09:32:38;101549.06;;;13.34;100.00
14232;BME280;7200;52.194;9.900;2023-05-25T09:35:13;101561.72;;;13.54;100.00
14232;BME280;7200;52.194;9.900;2023-05-25T09:37:40;101576.34;;;13.68;100.00
14232;BME280;7200;52.194;9.900;2023-05-25T09:40:06;101560.78;;;13.24;100.00
14232;BME280;7200;52.194;9.900;2023-05-25T09:42:32;101573.53;;;13.42;100.00
14232;BME280;7200;52.194;9.900;2023-05-25T09:44:58;101563.63;;;13.49;100.00
14232;BME280;7200;52.194;9.900;2023-05-25T09:47:29;101564.44;;;13.51;100.00
14232;BME280;7200;52.194;9.900;2023-05-25T09:49:55;101583.13;;;13.76;100.00
14232;BME280;7200;52.194;9.900;2023-05-25T09:52:21;101575.19;;;13.75;100.00
14232;BME280;7200;52.194;9.900;2023-05-25T09:54:48;101572.56;;;13.75;100.00
14232;BME280;7200;52.194;9.900;2023-05-25T09:57:14;101579.66;;;13.74;100.00
14232;BME280;7200;52.194;9.900;2023-05-25T09:59:41;101575.44;;;13.67;100.00
14232;BME280;7200;52.194;9.900;2023-05-25T10:02:07;101581.88;;;13.60;100.00
14232;BME280;7200;52.194;9.900;2023-05-25T10:04:32;101574.63;;;13.65;100.00
14232;BME280;7200;52.194;9.900;2023-05-25T10:06:59;101582.41;;;13.71;100.00
14232;BME280;7200;52.194;9.900;2023-05-25T10:09:26;101592.00;;;13.75;100.00
14232;BME280;7200;52.194;9.900;2023-05-25T10:11:53;101593.75;;;13.75;100.00
14232;BME280;7200;52.194;9.900;2023-05-25T10:14:24;101622.53;;;14.17;100.00
14232;BME280;7200;52.194;9.900;2023-05-25T10:16:52;101608.19;;;14.23;100.00
14232;BME280;7200;52.194;9.900;2023-05-25T10:22:02;101589.69;;;14.19;100.00
14232;BME280;7200;52.194;9.900;2023-05-25T10:24:52;101617.66;;;15.08;100.00
14232;BME280;7200;52.194;9.900;2023-05-25T10:27:22;101604.91;;;15.65;100.00
14232;BME280;7200;52.194;9.900;2023-05-25T10:29:49;101593.06;;;16.18;100.00
14232;BME280;7200;52.194;9.900;2023-05-25T10:32:16;101531.75;;;15.53;100.00
14232;BME280;7200;52.194;9.900;2023-05-25T10:34:42;101548.72;;;15.73;100.00
14232;BME280;7200;52.194;9.900;2023-05-25T10:37:08;101535.00;;;15.38;100.00
14232;BME280;7200;52.194;9.900;2023-05-25T10:39:37;101545.31;;;15.24;100.00
14232;BME280;7200;52.194;9.900;2023-05-25T10:42:03;101553.34;;;15.46;100.00
14232;BME280;7200;52.194;9.900;2023-05-25T10:44:29;101562.03;;;15.73;100.00
14232;BME280;7200;52.194;9.900;2023-05-25T10:46:56;101547.16;;;15.45;100.00
14232;BME280;7200;52.194;9.900;2023-05-25T10:49:33;101509.31;;;14.91;100.00
14232;BME280;7200;52.194;9.900;2023-05-25T10:51:59;101565.16;;;15.61;100.00
14232;BME280;7200;52.194;9.900;2023-05-25T10:54:29;101575.84;;;16.05;100.00
14232;BME280;7200;52.194;9.900;2023-05-25T10:57:17;101504.28;;;15.53;100.00
14232;BME280;7200;52.194;9.900;2023-05-25T10:59:47;101512.84;;;15.39;100.00
14232;BME280;7200;52.194;9.900;2023-05-25T11:02:14;101536.44;;;15.69;100.00
14232;BME280;7200;52.194;9.900;2023-05-25T11:04:40;101505.34;;;15.49;100.00
14232;BME280;7200;52.194;9.900;2023-05-25T11:07:06;101525.25;;;15.84;100.00
14232;BME280;7200;52.194;9.900;2023-05-25T11:09:39;101512.72;;;15.64;100.00
14232;BME280;7200;52.194;9.900;2023-05-25T11:12:05;101548.56;;;16.00;100.00
14232;BME280;7200;52.194;9.900;2023-05-25T11:14:34;101524.78;;;15.73;100.00
14232;BME280;7200;52.194;9.900;2023-05-25T11:17:07;101505.22;;;15.52;100.00
14232;BME280;7200;52.194;9.900;2023-05-25T11:19:55;101513.47;;;15.68;100.00
14232;BME280;7200;52.194;9.900;2023-05-25T11:22:29;101536.00;;;15.81;100.00
14232;BME280;7200;52.194;9.900;2023-05-25T11:24:56;101510.00;;;15.88;100.00
14232;BME280;7200;52.194;9.900;2023-05-25T11:27:23;101511.31;;;15.77;100.00
14232;BME280;7200;52.194;9.900;2023-05-25T11:29:52;101513.56;;;15.65;100.00
14232;BME280;7200;52.194;9.900;2023-05-25T11:32:18;101508.69;;;15.54;100.00
14232;BME280;7200;52.194;9.900;2023-05-25T11:34:46;101537.88;;;15.79;100.00
14232;BME280;7200;52.194;9.900;2023-05-25T11:37:16;101520.56;;;15.45;100.00
14232;BME280;7200;52.194;9.900;2023-05-25T11:39:49;101508.91;;;15.26;100.00
14232;BME280;7200;52.194;9.900;2023-05-25T11:42:16;101532.53;;;15.79;100.00
14232;BME280;7200;52.194;9.900;2023-05-25T11:44:41;101520.88;;;16.04;100.00
14232;BME280;7200;52.194;9.900;2023-05-25T11:47:09;101504.59;;;16.11;100.00
14232;BME280;7200;52.194;9.900;2023-05-25T11:49:41;101483.16;;;15.94;100.00
14232;BME280;7200;52.194;9.900;2023-05-25T11:52:18;101517.78;;;16.35;100.00
14232;BME280;7200;52.194;9.900;2023-05-25T11:54:44;101497.28;;;16.17;100.00
14232;BME280;7200;52.194;9.900;2023-05-25T11:57:20;101510.09;;;16.27;100.00
14232;BME280;7200;52.194;9.900;2023-05-25T11:59:59;101517.75;;;16.55;100.00
14232;BME280;7200;52.194;9.900;2023-05-25T12:02:26;101494.94;;;16.29;100.00
14232;BME280;7200;52.194;9.900;2023-05-25T12:04:56;101540.13;;;16.72;100.00
14232;BME280;7200;52.194;9.900;2023-05-25T12:07:22;101531.94;;;16.97;100.00
14232;BME280;7200;52.194;9.900;2023-05-25T12:09:48;101507.06;;;16.76;100.00
14232;BME280;7200;52.194;9.900;2023-05-25T12:12:13;101469.25;;;16.28;100.00
14232;BME280;7200;52.194;9.900;2023-05-25T12:14:48;101521.16;;;16.59;100.00
14232;BME280;7200;52.194;9.900;2023-05-25T12:17:15;101521.75;;;16.66;100.00
14232;BME280;7200;52.194;9.900;2023-05-25T12:19:41;101526.91;;;17.10;100.00
14232;BME280;7200;52.194;9.900;2023-05-25T12:22:06;101470.16;;;16.48;100.00
14232;BME280;7200;52.194;9.900;2023-05-25T12:24:32;101482.16;;;16.17;100.00
14232;BME280;7200;52.194;9.900;2023-05-25T12:26:57;101489.34;;;16.35;100.00
14232;BME280;7200;52.194;9.900;2023-05-25T12:29:24;101507.94;;;16.37;100.00
14232;BME280;7200;52.194;9.900;2023-05-25T12:31:50;101460.78;;;15.98;100.00
14232;BME280;7200;52.194;9.900;2023-05-25T12:34:19;101525.16;;;16.90;100.00
14232;BME280;7200;52.194;9.900;2023-05-25T12:36:49;101527.84;;;17.47;100.00
14232;BME280;7200;52.194;9.900;2023-05-25T12:39:30;101531.84;;;18.28;100.00
14232;BME280;7200;52.194;9.900;2023-05-25T12:42:00;101499.19;;;18.92;100.00
14232;BME280;7200;52.194;9.900;2023-05-25T12:44:32;101459.69;;;18.97;100.00
14232;BME280;7200;52.194;9.900;2023-05-25T12:49:38;101414.22;;;18.97;100.00
14232;BME280;7200;52.194;9.900;2023-05-25T12:52:04;101384.78;;;18.32;100.00
14232;BME280;7200;52.194;9.900;2023-05-25T12:54:44;101339.31;;;17.11;100.00
14232;BME280;7200;52.194;9.900;2023-05-25T12:57:15;101388.34;;;17.08;100.00